Time;durP1;ratioP1;P1;durP2;ratioP2;P2;SDS_P1;SDS_P2;PMS_P1;PMS_P2;Temp;Humidity;BMP_temperature;BMP_pressure;BME280_temperature;BME280_humidity;BME280_pressure;Samples;Min_cycle;Max_cycle;Signal;HPM_P1;HPM_P2
2022/08/30 00:01:24;;;;;;;4.73;2.80;;;16.90;99.90;17.70;97185.00;;;;5064899;28;20224;-74
2022/08/30 00:04:12;;;;;;;4.43;3.07;;;16.80;99.90;17.70;97191.00;;;;5066303;28;20235;-73
2022/08/30 00:07:02;;;;;;;6.23;3.50;;;16.70;99.90;18.10;97188.00;;;;5065933;28;20200;-73
2022/08/30 00:09:51;;;;;;;7.63;3.33;;;16.70;99.90;18.20;97183.00;;;;5064678;28;20227;-73
2022/08/30 00:12:42;;;;;;;4.93;3.60;;;16.80;99.90;18.30;97184.00;;;;5064651;28;20211;-73
2022/08/30 00:15:31;;;;;;;4.63;2.70;;;16.80;99.90;18.30;97189.00;;;;5063948;28;20216;-73
2022/08/30 00:18:21;;;;;;;3.80;3.17;;;16.90;99.90;18.00;97171.00;;;;5065684;28;20196;-73
2022/08/30 00:21:11;;;;;;;3.33;3.03;;;16.90;99.90;17.90;97179.00;;;;5061192;28;20227;-73
2022/08/30 00:23:59;;;;;;;6.77;2.70;;;16.80;99.90;18.00;97183.00;;;;5065864;28;20219;-73
2022/08/30 00:26:48;;;;;;;4.90;3.40;;;16.80;99.90;17.90;97185.00;;;;5067676;28;20215;-72
2022/08/30 00:29:38;;;;;;;4.47;3.23;;;16.80;99.90;18.00;97189.00;;;;5063548;28;20707;-73
2022/08/30 00:32:28;;;;;;;6.93;3.43;;;16.80;99.90;18.10;97186.00;;;;5065165;28;20207;-74
2022/08/30 00:35:19;;;;;;;5.73;3.37;;;16.80;99.90;18.10;97176.00;;;;5066880;28;20203;-72
2022/08/30 00:38:08;;;;;;;3.33;3.03;;;16.80;99.90;17.90;97183.00;;;;5066570;28;20208;-72
2022/08/30 00:40:58;;;;;;;3.90;2.87;;;16.80;99.90;18.00;97183.00;;;;5065988;28;20227;-76
2022/08/30 00:43:47;;;;;;;2.60;2.40;;;16.70;99.90;18.00;97182.00;;;;5063569;28;20235;-72
2022/08/30 00:46:37;;;;;;;3.70;2.87;;;16.70;99.90;17.90;97178.00;;;;5070456;28;20667;-74
2022/08/30 00:49:26;;;;;;;5.03;2.83;;;16.70;99.90;18.00;97180.00;;;;5059461;28;20224;-74
2022/08/30 00:52:16;;;;;;;4.97;3.40;;;16.70;99.90;17.70;97179.00;;;;5068090;28;20267;-73
2022/08/30 00:55:06;;;;;;;5.67;3.47;;;16.70;99.90;17.60;97177.00;;;;5069620;28;20211;-74
2022/08/30 00:58:00;;;;;;;5.03;3.27;;;16.60;99.90;17.70;97170.00;;;;5062513;28;20199;-73
2022/08/30 01:00:50;;;;;;;4.27;2.97;;;16.60;99.90;17.70;97167.00;;;;5064784;28;20220;-73
2022/08/30 01:03:42;;;;;;;3.93;3.53;;;16.60;99.90;17.40;97173.00;;;;5069047;28;20220;-73
2022/08/30 01:06:32;;;;;;;3.70;3.00;;;16.50;99.90;17.30;97165.00;;;;5070536;28;20737;-74
2022/08/30 01:09:21;;;;;;;4.97;3.27;;;16.40;99.90;17.30;97169.00;;;;5070091;28;20760;-73
2022/08/30 01:12:11;;;;;;;6.73;3.13;;;16.30;99.90;17.50;97163.00;;;;5068123;28;20200;-74
2022/08/30 01:15:00;;;;;;;3.47;3.03;;;16.30;99.90;17.60;97169.00;;;;5068746;28;20203;-74
2022/08/30 01:17:49;;;;;;;4.23;3.40;;;16.30;99.90;17.30;97160.00;;;;5067375;28;20212;-74
2022/08/30 01:20:53;;;;;;;5.90;3.17;;;16.30;99.90;17.20;97164.00;;;;5066350;28;20224;-73
2022/08/30 01:23:47;;;;;;;4.47;2.87;;;16.20;99.90;17.00;97164.00;;;;5068082;28;20222;-73
2022/08/30 01:26:36;;;;;;;4.30;3.30;;;16.10;99.90;17.10;97160.00;;;;5069649;28;20203;-74
2022/08/30 01:29:27;;;;;;;5.07;3.80;;;16.10;99.90;17.10;97162.00;;;;5066227;28;20224;-74
2022/08/30 01:32:18;;;;;;;4.77;3.67;;;16.10;99.90;17.20;97159.00;;;;5066951;28;20192;-75
2022/08/30 01:35:10;;;;;;;8.60;3.37;;;16.10;99.90;17.20;97173.00;;;;5069689;28;20203;-75
2022/08/30 01:37:59;;;;;;;3.80;3.27;;;16.10;99.90;17.10;97164.00;;;;5056353;28;20274;-75
2022/08/30 01:40:49;;;;;;;3.67;3.37;;;16.10;99.90;17.00;97153.00;;;;5064786;28;20224;-73
2022/08/30 01:43:39;;;;;;;4.10;3.57;;;16.00;99.90;16.90;97166.00;;;;5063835;28;20266;-74
2022/08/30 01:46:34;;;;;;;3.23;2.93;;;15.90;99.90;16.80;97156.00;;;;5067814;28;20196;-74
2022/08/30 01:52:16;;;;;;;4.37;3.93;;;15.80;99.90;16.90;97161.00;;;;4985176;28;20214;-86
2022/08/30 01:55:07;;;;;;;4.73;3.50;;;15.80;99.90;16.80;97158.00;;;;4993533;28;20218;-87
2022/08/30 01:57:58;;;;;;;4.43;4.07;;;15.80;99.90;16.90;97158.00;;;;4992672;28;20245;-87
2022/08/30 02:00:46;;;;;;;3.23;2.93;;;15.80;99.90;16.90;97161.00;;;;4986297;28;20206;-86
2022/08/30 02:03:36;;;;;;;3.90;3.33;;;15.80;99.90;16.90;97158.00;;;;4986440;28;20253;-87
2022/08/30 02:06:25;;;;;;;4.57;3.87;;;15.80;99.90;17.10;97168.00;;;;4985629;28;20211;-86
2022/08/30 02:09:14;;;;;;;6.30;3.70;;;15.80;99.90;16.90;97164.00;;;;4991727;28;20218;-87
2022/08/30 02:12:04;;;;;;;6.00;4.13;;;15.80;99.90;16.80;97159.00;;;;4990337;28;20221;-87
2022/08/30 02:14:55;;;;;;;5.83;3.67;;;15.80;99.90;16.90;97161.00;;;;4991753;28;20206;-87
2022/08/30 02:17:44;;;;;;;5.33;3.70;;;15.70;99.90;16.90;97159.00;;;;4990651;28;20219;-86
2022/08/30 02:20:32;;;;;;;6.80;3.30;;;15.70;99.90;16.70;97159.00;;;;4991478;28;20206;-87
2022/08/30 02:23:21;;;;;;;4.33;3.30;;;15.70;99.90;16.70;97158.00;;;;4982098;28;20207;-87
2022/08/30 02:26:12;;;;;;;5.87;4.07;;;15.70;99.90;16.90;97161.00;;;;4990874;28;20692;-87
2022/08/30 02:29:01;;;;;;;7.20;4.53;;;15.70;99.90;16.80;97154.00;;;;4988676;28;20229;-87
2022/08/30 02:31:51;;;;;;;5.10;3.70;;;15.70;99.90;16.70;97153.00;;;;4987450;28;20203;-87
2022/08/30 02:34:40;;;;;;;4.57;3.80;;;15.70;99.90;16.60;97147.00;;;;4990553;28;20191;-86
2022/08/30 02:37:29;;;;;;;5.90;3.93;;;15.60;99.90;16.40;97154.00;;;;4991168;28;20223;-86
2022/08/30 02:40:17;;;;;;;4.93;4.03;;;15.60;99.90;16.50;97152.00;;;;4991830;28;20207;-86
2022/08/30 02:43:07;;;;;;;6.03;4.60;;;15.50;99.90;16.60;97154.00;;;;4990401;28;20213;-85
2022/08/30 02:45:56;;;;;;;5.00;3.73;;;15.50;99.90;16.70;97156.00;;;;4988172;28;20213;-87
2022/08/30 02:48:46;;;;;;;5.97;3.27;;;15.50;99.90;16.60;97161.00;;;;4991443;28;20230;-86
2022/08/30 02:51:35;;;;;;;7.50;3.83;;;15.50;99.90;16.80;97162.00;;;;4992296;28;20681;-86
2022/08/30 02:54:24;;;;;;;5.70;3.90;;;15.50;99.90;16.90;97156.00;;;;4990555;28;20218;-86
2022/08/30 02:57:12;;;;;;;5.30;4.77;;;15.60;99.90;17.00;97156.00;;;;4989942;28;20199;-87
2022/08/30 03:00:01;;;;;;;10.83;4.07;;;15.60;99.90;16.90;97152.00;;;;4989838;28;20569;-86
2022/08/30 03:02:50;;;;;;;5.10;4.60;;;15.60;99.90;16.50;97143.00;;;;4985765;28;20605;-87
2022/08/30 03:05:40;;;;;;;6.03;4.70;;;15.60;99.90;16.40;97144.00;;;;4986902;28;20694;-86
2022/08/30 03:08:29;;;;;;;4.90;4.20;;;15.50;99.90;16.20;97142.00;;;;4984702;28;20214;-86
2022/08/30 03:11:20;;;;;;;5.43;4.07;;;15.50;99.90;16.10;97140.00;;;;4981861;28;20214;-88
2022/08/30 03:14:09;;;;;;;4.33;3.50;;;15.40;99.90;16.00;97139.00;;;;4980005;28;20589;-86
2022/08/30 03:16:58;;;;;;;5.07;4.57;;;15.30;99.90;16.00;97133.00;;;;4990154;28;20195;-86
2022/08/30 03:19:47;;;;;;;6.97;4.47;;;15.20;99.90;16.10;97134.00;;;;4983463;28;20225;-86
2022/08/30 03:22:38;;;;;;;7.33;4.90;;;15.20;99.90;16.10;97130.00;;;;4985294;28;20576;-87
2022/08/30 03:25:28;;;;;;;4.77;4.13;;;15.10;99.90;16.00;97135.00;;;;4985926;28;20782;-87
2022/08/30 03:28:17;;;;;;;10.20;4.50;;;15.10;99.90;16.00;97129.00;;;;4990573;28;20682;-87
2022/08/30 03:31:06;;;;;;;4.27;3.63;;;15.10;99.90;16.00;97135.00;;;;4990156;28;20690;-86
2022/08/30 03:33:55;;;;;;;6.17;4.53;;;15.00;99.90;15.90;97132.00;;;;4984256;28;20690;-87
2022/08/30 03:36:44;;;;;;;11.07;5.70;;;15.00;99.90;16.10;97125.00;;;;4988652;28;20203;-86
2022/08/30 03:39:34;;;;;;;6.87;6.07;;;15.10;99.90;16.20;97136.00;;;;4989461;28;20199;-86
2022/08/30 03:42:24;;;;;;;7.10;4.77;;;15.10;99.90;16.00;97123.00;;;;4988481;28;20237;-87
2022/08/30 03:45:15;;;;;;;8.77;4.87;;;15.10;99.90;16.00;97136.00;;;;4989642;28;20225;-87
2022/08/30 03:48:04;;;;;;;5.10;4.53;;;15.00;99.90;15.90;97134.00;;;;4989444;28;20227;-86
2022/08/30 03:50:53;;;;;;;5.00;4.40;;;15.00;99.90;16.00;97127.00;;;;4989700;28;20206;-86
2022/08/30 03:53:42;;;;;;;7.43;4.47;;;15.00;99.90;16.10;97126.00;;;;4989547;28;20203;-86
2022/08/30 03:56:32;;;;;;;6.83;4.60;;;15.00;99.90;15.80;97126.00;;;;4990470;28;20199;-84
2022/08/30 03:59:21;;;;;;;6.37;5.77;;;15.00;99.90;15.60;97123.00;;;;4989998;28;20222;-85
2022/08/30 04:02:10;;;;;;;5.40;4.47;;;14.90;99.90;15.70;97133.00;;;;4988010;28;20548;-86
2022/08/30 04:04:59;;;;;;;6.67;4.67;;;14.90;99.90;15.90;97122.00;;;;4988983;28;20244;-85
2022/08/30 04:07:48;;;;;;;6.47;4.93;;;14.80;99.90;16.10;97127.00;;;;4984827;28;20222;-86
2022/08/30 04:10:37;;;;;;;13.47;5.77;;;14.90;99.90;16.10;97139.00;;;;4990278;28;20191;-86
2022/08/30 04:13:28;;;;;;;6.57;4.43;;;14.90;99.90;16.10;97142.00;;;;4986228;28;20206;-85
2022/08/30 04:16:18;;;;;;;7.67;5.17;;;14.90;99.90;16.20;97132.00;;;;4986765;28;20198;-86
2022/08/30 04:19:07;;;;;;;11.37;5.10;;;15.00;99.90;16.20;97143.00;;;;4987245;28;20257;-86
2022/08/30 04:21:56;;;;;;;9.13;5.30;;;15.00;99.90;16.20;97140.00;;;;4991630;28;20558;-85
2022/08/30 04:24:45;;;;;;;7.90;5.57;;;15.00;99.90;16.20;97141.00;;;;4991924;28;20237;-86
2022/08/30 04:27:34;;;;;;;7.03;5.10;;;15.00;99.90;15.90;97147.00;;;;4986845;28;20219;-86
2022/08/30 04:30:24;;;;;;;8.97;5.23;;;14.90;99.90;15.80;97159.00;;;;4991922;28;20195;-87
2022/08/30 04:33:15;;;;;;;8.47;5.80;;;14.90;99.90;15.70;97151.00;;;;4976625;28;20741;-85
2022/08/30 04:36:08;;;;;;;5.63;4.70;;;14.80;99.90;15.60;97151.00;;;;4994166;28;20194;-87
2022/08/30 04:38:56;;;;;;;7.63;5.03;;;14.80;99.90;15.50;97151.00;;;;5008516;28;20227;-86
2022/08/30 04:41:46;;;;;;;6.77;5.27;;;14.80;99.90;15.50;97160.00;;;;5002857;28;20690;-87
2022/08/30 04:44:35;;;;;;;6.37;5.70;;;14.70;99.90;15.60;97167.00;;;;4994140;28;20210;-87
2022/08/30 04:47:25;;;;;;;9.17;5.30;;;14.70;99.90;15.60;97166.00;;;;4995145;28;20231;-86
2022/08/30 04:50:19;;;;;;;8.40;6.07;;;14.70;99.90;15.60;97170.00;;;;4995204;28;20214;-87
2022/08/30 04:53:08;;;;;;;6.60;5.00;;;14.70;99.90;15.70;97168.00;;;;4994811;28;20580;-86
2022/08/30 04:55:57;;;;;;;5.53;4.87;;;14.70;99.90;15.70;97172.00;;;;4993995;28;20203;-88
2022/08/30 04:58:48;;;;;;;7.47;5.00;;;14.70;99.90;15.80;97180.00;;;;4987683;28;20226;-86
2022/08/30 05:01:37;;;;;;;7.10;5.23;;;14.70;99.90;16.00;97182.00;;;;4991611;28;20195;-87
2022/08/30 05:04:27;;;;;;;8.13;4.70;;;14.80;99.90;16.30;97183.00;;;;4990436;28;20219;-86
2022/08/30 05:07:16;;;;;;;7.63;5.53;;;14.90;99.90;16.20;97187.00;;;;4992876;28;20647;-87
2022/08/30 05:10:06;;;;;;;5.23;4.60;;;15.00;99.90;16.10;97180.00;;;;4994860;28;20211;-87
2022/08/30 05:12:58;;;;;;;8.23;5.37;;;15.00;99.90;16.10;97183.00;;;;4993498;28;20741;-86
2022/08/30 05:15:47;;;;;;;8.77;5.07;;;15.10;99.90;16.20;97194.00;;;;4988440;28;20207;-87
2022/08/30 05:18:36;;;;;;;9.23;4.70;;;15.10;99.90;16.20;97195.00;;;;4989158;28;20233;-86
2022/08/30 05:21:29;;;;;;;6.37;4.60;;;15.10;99.90;16.30;97204.00;;;;4990520;28;20209;-87
2022/08/30 05:24:17;;;;;;;5.50;4.83;;;15.20;99.90;15.90;97200.00;;;;4992877;28;20696;-87
2022/08/30 05:27:06;;;;;;;4.77;4.23;;;15.10;99.90;15.80;97199.00;;;;4990780;28;20206;-87
2022/08/30 05:29:56;;;;;;;5.97;4.83;;;15.10;99.90;16.00;97201.00;;;;4993140;28;20218;-86
2022/08/30 05:32:45;;;;;;;6.13;5.53;;;15.10;99.90;16.10;97190.00;;;;4987923;28;20211;-86
2022/08/30 05:35:34;;;;;;;9.40;5.23;;;15.10;99.90;16.30;97195.00;;;;4991038;28;20191;-86
2022/08/30 05:38:24;;;;;;;5.77;4.97;;;15.20;99.90;16.50;97195.00;;;;4991209;28;20226;-86
2022/08/30 05:41:13;;;;;;;6.40;4.90;;;15.30;99.90;16.50;97200.00;;;;5012991;28;20281;-90
2022/08/30 05:44:04;;;;;;;5.97;4.33;;;15.30;99.90;16.60;97197.00;;;;5014590;28;20197;-87
2022/08/30 05:46:53;;;;;;;7.33;5.33;;;15.40;99.90;16.80;97203.00;;;;4997597;28;20226;-87
2022/08/30 05:49:42;;;;;;;6.40;5.43;;;15.50;99.90;16.80;97198.00;;;;5005382;28;20199;-90
2022/08/30 05:52:30;;;;;;;7.23;6.00;;;15.60;99.90;17.00;97200.00;;;;5010050;28;20207;-86
2022/08/30 05:55:21;;;;;;;6.53;5.60;;;15.70;99.90;17.20;97211.00;;;;4993694;28;20199;-87
2022/08/30 05:58:10;;;;;;;6.13;5.50;;;15.80;99.90;17.30;97217.00;;;;4988690;28;20234;-86
2022/08/30 06:01:00;;;;;;;6.20;5.60;;;15.90;99.90;17.30;97212.00;;;;4992205;28;20572;-86
2022/08/30 06:03:49;;;;;;;8.67;6.03;;;15.90;99.90;17.20;97222.00;;;;4987767;28;20579;-86
2022/08/30 06:06:41;;;;;;;8.13;6.23;;;16.00;99.90;17.10;97215.00;;;;4992706;28;20265;-86
2022/08/30 06:09:30;;;;;;;11.83;6.77;;;16.00;99.90;17.20;97222.00;;;;4991038;28;20195;-85
2022/08/30 06:12:20;;;;;;;6.83;6.13;;;16.00;99.90;17.10;97219.00;;;;4993096;28;20210;-86
2022/08/30 06:15:10;;;;;;;8.60;6.00;;;16.00;99.90;17.30;97213.00;;;;4992779;28;20669;-86
2022/08/30 06:17:59;;;;;;;7.93;5.77;;;16.00;99.90;17.50;97211.00;;;;4993220;28;20804;-87
2022/08/30 06:20:50;;;;;;;9.50;6.87;;;16.10;99.90;17.80;97220.00;;;;4994559;28;20207;-86
2022/08/30 06:23:38;;;;;;;9.00;8.10;;;16.20;99.90;18.10;97215.00;;;;4986641;28;20198;-86
2022/08/30 06:26:28;;;;;;;8.33;6.87;;;16.40;99.90;18.20;97217.00;;;;4992760;28;20214;-86
2022/08/30 06:29:21;;;;;;;9.53;8.53;;;16.50;99.90;18.50;97224.00;;;;4987460;28;20229;-86
2022/08/30 06:32:10;;;;;;;13.47;7.70;;;16.70;99.90;18.70;97225.00;;;;4992870;28;20199;-86
2022/08/30 06:34:59;;;;;;;12.17;7.67;;;16.90;99.90;19.00;97231.00;;;;4993367;28;20199;-86
2022/08/30 06:37:47;;;;;;;8.50;6.63;;;17.10;99.90;19.10;97221.00;;;;4991633;28;20219;-86
2022/08/30 06:40:37;;;;;;;9.33;7.77;;;17.30;99.90;19.40;97220.00;;;;4990479;28;20247;-84
2022/08/30 06:43:25;;;;;;;9.83;6.57;;;17.50;99.90;19.70;97227.00;;;;4987272;28;20202;-85
2022/08/30 06:46:21;;;;;;;8.83;6.30;;;17.70;99.90;19.80;97222.00;;;;4992359;28;20589;-86
2022/08/30 06:49:10;;;;;;;10.53;6.40;;;17.90;99.90;20.00;97229.00;;;;4987512;28;20227;-87
2022/08/30 06:51:58;;;;;;;10.00;7.10;;;18.10;99.90;20.20;97214.00;;;;4990147;28;20554;-85
2022/08/30 06:54:48;;;;;;;11.97;6.47;;;18.30;99.90;20.10;97226.00;;;;4988520;28;20206;-86
2022/08/30 06:57:38;;;;;;;9.30;8.40;;;18.50;99.90;20.40;97223.00;;;;4984524;28;20226;-87
2022/08/30 07:00:29;;;;;;;7.77;5.73;;;18.60;99.90;20.50;97218.00;;;;4991575;28;20918;-86
2022/08/30 07:03:19;;;;;;;11.40;7.13;;;18.70;99.90;20.70;97212.00;;;;4984235;28;20206;-87
2022/08/30 07:06:08;;;;;;;8.90;6.90;;;18.80;99.90;20.90;97216.00;;;;4989157;28;20214;-86
2022/08/30 07:08:57;;;;;;;10.33;6.37;;;19.10;99.90;21.00;97217.00;;;;4990775;28;20375;-87
2022/08/30 07:11:46;;;;;;;8.83;6.27;;;19.20;99.90;21.10;97214.00;;;;4989693;28;20576;-87
2022/08/30 07:14:35;;;;;;;7.23;5.53;;;19.30;99.90;21.30;97225.00;;;;4986091;28;20199;-86
2022/08/30 07:20:32;;;;;;;9.17;6.50;;;19.60;99.90;21.60;97210.00;;;;4985948;28;20234;-86
2022/08/30 07:23:20;;;;;;;10.40;6.20;;;19.70;99.90;21.70;97215.00;;;;4991102;28;20225;-87
2022/08/30 07:26:13;;;;;;;8.67;5.67;;;19.90;99.90;21.70;97216.00;;;;4977824;28;20214;-86
2022/08/30 07:29:02;;;;;;;8.87;6.20;;;20.00;99.90;21.80;97218.00;;;;5053306;23;20240;-72
2022/08/30 07:31:51;;;;;;;9.87;6.43;;;20.10;99.90;22.00;97215.00;;;;5033969;28;20578;-71
2022/08/30 07:34:40;;;;;;;7.83;5.83;;;20.20;99.90;22.40;97220.00;;;;5033492;28;20196;-71
2022/08/30 07:37:31;;;;;;;7.20;6.03;;;20.40;99.90;22.50;97223.00;;;;5039050;28;20426;-72
2022/08/30 07:40:20;;;;;;;9.20;5.50;;;20.50;99.90;22.60;97212.00;;;;5039109;28;20231;-72
2022/08/30 07:43:08;;;;;;;6.77;5.47;;;20.70;99.90;22.90;97221.00;;;;5067030;23;20719;-85
2022/08/30 07:46:02;;;;;;;8.37;5.83;;;20.90;99.90;23.10;97211.00;;;;5088656;28;20191;-85
2022/08/30 07:48:53;;;;;;;7.70;5.50;;;21.10;99.90;23.30;97224.00;;;;5099845;28;20222;-85
2022/08/30 07:51:41;;;;;;;6.63;5.30;;;21.30;99.90;23.50;97215.00;;;;5111395;28;20194;-85
2022/08/30 07:54:32;;;;;;;7.90;5.13;;;21.40;99.90;23.50;97216.00;;;;5106892;28;20198;-85
2022/08/30 07:57:21;;;;;;;5.90;5.33;;;21.60;99.90;23.80;97211.00;;;;5112937;28;20194;-85
2022/08/30 08:00:11;;;;;;;9.63;4.87;;;21.80;99.90;24.00;97215.00;;;;5110264;28;20195;-87
2022/08/30 08:03:06;;;;;;;5.63;5.10;;;22.00;99.90;24.10;97204.00;;;;5110030;28;20199;-87
2022/08/30 08:05:55;;;;;;;10.07;4.80;;;22.10;99.90;24.30;97209.00;;;;5113536;28;20602;-87
2022/08/30 08:08:45;;;;;;;7.40;4.73;;;22.30;99.90;24.50;97210.00;;;;5102334;28;20215;-86
2022/08/30 08:11:36;;;;;;;5.53;5.03;;;22.40;99.90;24.70;97208.00;;;;5110893;28;20199;-85
2022/08/30 08:14:25;;;;;;;4.67;3.60;;;22.60;99.90;25.00;97203.00;;;;5092050;28;20191;-88
2022/08/30 08:17:14;;;;;;;5.40;3.93;;;22.80;99.90;25.00;97206.00;;;;5105536;28;20191;-87
2022/08/30 08:20:04;;;;;;;6.40;3.67;;;23.00;99.90;25.20;97210.00;;;;5112911;28;20198;-87
2022/08/30 08:22:53;;;;;;;4.87;4.07;;;23.20;99.90;25.00;97196.00;;;;5112508;28;20206;-87
2022/08/30 08:25:42;;;;;;;4.33;3.90;;;23.30;99.90;25.40;97206.00;;;;5112180;28;20677;-87
2022/08/30 08:28:32;;;;;;;4.97;4.43;;;23.40;99.90;25.50;97207.00;;;;5111816;28;20222;-88
2022/08/30 08:31:24;;;;;;;4.37;3.93;;;23.60;99.90;25.10;97205.00;;;;5112058;28;20199;-87
2022/08/30 08:34:13;;;;;;;4.87;4.37;;;23.60;99.90;25.60;97202.00;;;;5112255;28;20199;-87
2022/08/30 08:37:03;;;;;;;3.47;3.17;;;23.70;99.90;25.60;97200.00;;;;5112675;28;20211;-88
2022/08/30 08:39:52;;;;;;;3.83;3.43;;;23.80;99.90;25.90;97199.00;;;;5113224;28;20203;-87
2022/08/30 08:42:59;;;;;;;5.50;3.80;;;23.90;99.90;25.20;97198.00;;;;5112106;28;20196;-87
2022/08/30 08:45:56;;;;;;;5.07;3.77;;;24.00;99.90;25.50;97202.00;;;;5113547;28;20210;-88
2022/08/30 08:48:50;;;;;;;5.43;4.00;;;24.00;99.90;24.70;97193.00;;;;5113865;28;20218;-88
2022/08/30 08:54:58;;;;;;;4.50;4.10;;;23.80;99.90;26.20;97203.00;;;;5107640;28;20208;-87
2022/08/30 08:57:47;;;;;;;4.17;3.83;;;24.00;99.90;26.30;97202.00;;;;5113036;28;20219;-86
2022/08/30 09:00:36;;;;;;;5.67;4.20;;;24.10;99.90;26.70;97199.00;;;;5111753;28;20191;-88
2022/08/30 09:03:29;;;;;;;5.07;4.47;;;24.40;99.90;26.70;97189.00;;;;5101380;28;20197;-87
2022/08/30 09:06:42;;;;;;;4.63;4.03;;;24.60;99.90;26.90;97196.00;;;;5111946;28;20205;-87
2022/08/30 09:09:35;;;;;;;8.20;3.77;;;24.90;99.90;26.80;97189.00;;;;5111481;28;20225;-87
2022/08/30 09:12:24;;;;;;;5.93;4.60;;;25.10;99.90;26.90;97184.00;;;;5110778;28;20193;-87
2022/08/30 09:15:21;;;;;;;4.93;4.43;;;25.20;99.90;27.10;97181.00;;;;5112651;28;20208;-87
2022/08/30 09:18:10;;;;;;;6.60;4.67;;;25.20;99.90;26.50;97179.00;;;;5111447;28;20570;-88
2022/08/30 09:21:07;;;;;;;4.37;3.93;;;25.20;99.90;27.50;97173.00;;;;5112088;28;20682;-87
2022/08/30 09:24:00;;;;;;;8.30;4.37;;;25.40;99.90;27.70;97172.00;;;;5103110;28;20585;-88
2022/08/30 09:26:49;;;;;;;5.13;4.63;;;25.60;99.90;28.00;97174.00;;;;5107967;28;20584;-88
2022/08/30 09:29:50;;;;;;;4.80;4.40;;;25.80;99.90;27.30;97163.00;;;;5105840;28;20219;-87
2022/08/30 09:32:41;;;;;;;4.40;4.00;;;26.00;99.90;28.00;97164.00;;;;5109657;28;20202;-87
2022/08/30 09:35:36;;;;;;;4.03;3.63;;;26.10;99.90;28.20;97160.00;;;;5111056;28;20196;-87
2022/08/30 09:38:31;;;;;;;8.13;4.00;;;26.20;99.90;28.40;97161.00;;;;5110501;28;20221;-87
2022/08/30 09:41:35;;;;;;;3.73;3.30;;;26.30;99.90;28.40;97151.00;;;;5111206;28;20193;-87
2022/08/30 09:44:28;;;;;;;11.40;4.50;;;26.60;99.90;28.70;97156.00;;;;5111385;28;20231;-87
2022/08/30 09:47:24;;;;;;;4.40;3.33;;;26.70;99.90;29.10;97153.00;;;;5111409;28;20225;-87
2022/08/30 09:50:15;;;;;;;3.77;3.43;;;26.80;99.90;29.10;97148.00;;;;5111921;28;20247;-86
2022/08/30 09:53:14;;;;;;;4.20;3.60;;;27.00;99.90;29.20;97147.00;;;;5109681;28;20201;-87
2022/08/30 09:56:13;;;;;;;5.73;4.30;;;27.20;99.90;29.20;97166.00;;;;5111202;28;20221;-87
2022/08/30 09:59:13;;;;;;;5.40;4.37;;;27.30;99.90;28.90;97143.00;;;;5110620;28;20303;-88
2022/08/30 10:02:16;;;;;;;4.90;3.87;;;27.20;99.90;29.30;97138.00;;;;5109930;28;20215;-87
2022/08/30 10:05:14;;;;;;;6.33;4.63;;;27.30;99.90;29.50;97140.00;;;;5110936;28;20234;-88
2022/08/30 10:08:18;;;;;;;6.43;4.20;;;27.50;99.90;27.90;97139.00;;;;5109779;28;20229;-88
2022/08/30 10:11:20;;;;;;;4.73;4.23;;;27.30;99.90;28.60;97119.00;;;;5111182;28;20589;-88
2022/08/30 10:14:47;;;;;;;5.37;4.20;;;27.20;99.90;28.20;97117.00;;;;5110604;28;20204;-87
2022/08/30 10:17:48;;;;;;;5.67;4.33;;;27.20;99.90;28.60;97119.00;;;;5109438;28;20226;-87
2022/08/30 10:20:47;;;;;;;5.03;4.20;;;27.10;99.90;29.30;97128.00;;;;5110230;28;20212;-88
2022/08/30 10:23:43;;;;;;;5.13;4.00;;;27.30;99.90;29.30;97117.00;;;;5110799;28;20680;-88
2022/08/30 10:26:39;;;;;;;5.30;3.87;;;27.40;99.90;29.70;97109.00;;;;5110667;28;20216;-87
2022/08/30 10:29:34;;;;;;;5.77;3.80;;;27.60;99.90;30.00;97106.00;;;;5109204;28;20594;-88
2022/08/30 10:32:30;;;;;;;4.30;3.83;;;27.90;99.90;30.10;97103.00;;;;5105555;28;20429;-87
2022/08/30 10:35:24;;;;;;;7.20;3.73;;;28.10;99.90;30.60;97097.00;;;;5090514;28;20195;-87
2022/08/30 10:38:23;;;;;;;4.63;3.77;;;28.30;99.90;31.20;97095.00;;;;5091618;28;20224;-87
2022/08/30 10:41:23;;;;;;;5.03;3.90;;;28.50;99.90;31.20;97085.00;;;;5105471;28;20197;-88
2022/08/30 10:44:27;;;;;;;6.77;5.03;;;28.80;99.70;31.40;97082.00;;;;5108757;28;20214;-88
2022/08/30 10:47:29;;;;;;;4.90;3.87;;;29.10;99.00;31.60;97083.00;;;;5109272;28;20257;-87
2022/08/30 10:50:24;;;;;;;4.27;3.60;;;29.30;98.40;31.50;97083.00;;;;5110074;28;20196;-87
2022/08/30 10:53:17;;;;;;;4.90;3.77;;;29.40;97.30;31.30;97077.00;;;;5108146;28;20583;-88
2022/08/30 10:56:09;;;;;;;4.60;3.73;;;29.50;95.10;31.00;97062.00;;;;5110061;28;20210;-87
2022/08/30 10:58:58;;;;;;;5.33;3.63;;;29.40;94.30;31.60;97066.00;;;;5108684;28;20243;-88
2022/08/30 11:02:23;;;;;;;6.63;3.90;;;29.40;95.20;30.60;97069.00;;;;5107893;28;20200;-88
2022/08/30 11:05:37;;;;;;;4.03;3.63;;;29.50;93.30;32.20;97067.00;;;;5109110;28;20193;-88
2022/08/30 11:08:53;;;;;;;3.90;3.28;;;29.60;93.80;32.90;97060.00;;;;5108340;28;20719;-88
2022/08/30 11:12:02;;;;;;;3.90;3.28;;;30.00;94.50;33.00;97050.00;;;;5109494;28;20671;-88
2022/08/30 11:14:52;;;;;;;3.50;3.17;;;30.40;92.80;32.50;97052.00;;;;5109173;28;20209;-88
2022/08/30 11:17:53;;;;;;;5.07;3.33;;;30.50;90.80;32.70;97051.00;;;;5109225;28;20605;-88
2022/08/30 11:20:45;;;;;;;4.35;3.30;;;30.60;90.90;32.30;97055.00;;;;5109379;28;20601;-88
2022/08/30 11:23:36;;;;;;;5.40;3.45;;;30.80;90.30;31.10;97049.00;;;;5106635;28;20941;-88
2022/08/30 11:27:11;;;;;;;4.07;3.67;;;30.70;87.70;31.60;97047.00;;;;5098898;28;20198;-88
2022/08/30 11:30:50;;;;;;;3.47;3.22;;;30.60;87.20;32.50;97044.00;;;;5106720;28;20204;-88
2022/08/30 11:33:47;;;;;;;4.72;3.88;;;30.40;90.00;32.10;97044.00;;;;5095578;28;20197;-88
2022/08/30 11:37:02;;;;;;;3.95;3.55;;;30.50;87.50;31.10;97038.00;;;;5103105;28;20203;-88
2022/08/30 11:39:57;;;;;;;3.40;3.10;;;30.20;84.70;32.80;97039.00;;;;5103020;28;20241;-88
2022/08/30 11:42:48;;;;;;;3.53;3.22;;;30.40;85.00;32.00;97027.00;;;;5095972;28;20213;-89
2022/08/30 11:45:46;;;;;;;3.63;3.33;;;30.60;83.50;29.70;97080.00;;;;5103998;28;20204;-89
2022/08/30 11:48:51;;;;;;;5.53;5.03;;;29.80;83.20;30.40;97076.00;;;;5105881;28;20653;-88
2022/08/30 11:51:55;;;;;;;3.72;3.33;;;29.30;87.30;31.00;97033.00;;;;5108230;28;20191;-87
2022/08/30 11:55:41;;;;;;;4.40;3.42;;;29.20;86.30;31.50;97023.00;;;;5107479;28;20197;-89
2022/08/30 11:58:49;;;;;;;5.55;3.63;;;29.50;86.30;32.40;97020.00;;;;5102891;28;20234;-88
2022/08/30 12:01:39;;;;;;;5.03;2.97;;;30.00;83.50;33.50;97020.00;;;;5109646;28;20196;-89
2022/08/30 12:04:43;;;;;;;3.83;3.35;;;30.40;84.20;32.80;97024.00;;;;5103617;28;20205;-88
2022/08/30 12:08:00;;;;;;;4.32;3.55;;;30.80;81.50;33.40;97010.00;;;;5105099;28;20586;-88
2022/08/30 12:10:52;;;;;;;4.28;3.78;;;31.00;83.50;34.10;97003.00;;;;5108763;28;20200;-88
2022/08/30 12:13:55;;;;;;;4.07;3.78;;;31.40;83.30;33.90;97010.00;;;;5092301;28;20196;-88
2022/08/30 12:19:52;;;;;;;4.75;3.47;;;32.00;77.30;34.30;96998.00;;;;5097320;28;20214;-89
2022/08/30 12:22:41;;;;;;;3.35;3.00;;;32.00;76.80;35.00;97042.00;;;;5108229;28;20208;-88
2022/08/30 12:25:33;;;;;;;3.65;3.35;;;32.20;76.10;33.40;97057.00;;;;5108764;28;20194;-89
2022/08/30 12:28:25;;;;;;;3.70;3.40;;;32.20;73.20;32.50;97049.00;;;;5107618;28;20229;-89
2022/08/30 12:31:18;;;;;;;4.32;3.65;;;31.60;73.50;32.20;97048.00;;;;5108569;28;20205;-88
2022/08/30 12:34:07;;;;;;;3.00;2.70;;;31.20;74.30;33.20;96977.00;;;;5094597;28;20202;-89
2022/08/30 12:37:03;;;;;;;4.28;3.25;;;31.20;74.00;34.10;96979.00;;;;5108642;28;20201;-88
2022/08/30 12:40:05;;;;;;;3.97;3.28;;;31.50;72.40;35.80;96976.00;;;;5097235;28;20604;-88
2022/08/30 12:42:59;;;;;;;4.00;3.17;;;32.20;76.00;36.00;96991.00;;;;5110951;28;20222;-88
2022/08/30 12:45:49;;;;;;;4.85;3.25;;;32.80;75.00;37.00;96971.00;;;;5112133;28;20207;-88
2022/08/30 12:48:41;;;;;;;2.78;2.58;;;33.40;73.50;37.50;96963.00;;;;5113521;27;20322;-88
2022/08/30 12:51:38;;;;;;;3.25;2.95;;;34.10;71.40;36.20;96969.00;;;;5111688;28;20199;-89
2022/08/30 12:54:30;;;;;;;4.65;3.35;;;34.40;67.00;34.30;97030.00;;;;5103476;28;20209;-89
2022/08/30 12:57:36;;;;;;;6.70;3.28;;;33.80;64.00;34.20;97034.00;;;;5111619;28;20209;-89
2022/08/30 13:00:27;;;;;;;4.18;3.72;;;33.20;67.10;33.40;97029.00;;;;5112358;28;20217;-89